ADDS METAR Data INFO
IDs: Format: Raw Decoded Include TAF

Data at: 0436 UTC 28 Jul 2017

K5C1 280415Z AUTO 17007KT 10SM CLR A3001 RMK AO1
K5C1 280355Z AUTO 17012G17KT 10SM CLR A3001 RMK AO1
K5C1 280335Z AUTO 17010G15KT 10SM CLR A3000 RMK AO1
K5C1 280315Z AUTO 16005KT 10SM CLR A2999 RMK AO1
K5C1 280255Z AUTO 15005KT 10SM CLR A2998 RMK AO1
K5C1 280235Z AUTO 16006KT 10SM CLR A2998 RMK AO1
K5C1 280215Z AUTO 14004KT 10SM CLR A2998 RMK AO1
K5C1 280155Z AUTO 15005KT 10SM CLR A2998 RMK AO1
K5C1 280135Z AUTO 15004KT 10SM CLR A2998 RMK AO1
K5C1 280115Z AUTO 15004KT 10SM CLR A2998 RMK AO1
K5C1 280055Z AUTO 14009KT 10SM CLR A2998 RMK AO1
K5C1 280035Z AUTO 12009KT 10SM CLR A2998 RMK AO1
K5C1 280015Z AUTO 13007KT 10SM CLR A2998 RMK AO1
K5C1 272355Z AUTO 16008KT 10SM CLR A2998 RMK AO1
K5C1 272335Z AUTO 15007KT 10SM CLR A2998 RMK AO1
K5C1 272315Z AUTO 13009G17KT 10SM SCT070 SCT080 A2998 RMK AO1
K5C1 272255Z AUTO 15007G14KT 10SM SCT080 A2998 RMK AO1
K5C1 272235Z AUTO 14011G17KT 10SM BKN070 A2999 RMK AO1
K5C1 272215Z AUTO 14006G14KT 10SM SCT070 A2999 RMK AO1
K5C1 272155Z AUTO 14007G15KT 10SM SCT070 A3000 RMK AO1
K5C1 272135Z AUTO 16006G15KT 10SM SCT070 A3001 RMK AO1
K5C1 272115Z AUTO 16009G15KT 10SM SCT070 A3002 RMK AO1
K5C1 272055Z AUTO 17008KT 10SM SCT070 A3003 RMK AO1
K5C1 272035Z AUTO 17009KT 10SM CLR A3003 RMK AO1
K5C1 272015Z AUTO 22005KT 10SM SCT065 A3004 RMK AO1
K5C1 271955Z AUTO 20004KT 10SM SCT055 A3005 RMK AO1
K5C1 271935Z AUTO 17005KT 10SM SCT055 A3006 RMK AO1
K5C1 271915Z AUTO 16007G15KT 10SM SCT055 A3007 RMK AO1
K5C1 271855Z AUTO 26005KT 10SM SCT055 A3008 RMK AO1
K5C1 271835Z AUTO 00000KT 10SM CLR 32/17 A3008 RMK AO1
K5C1 271815Z AUTO 19011G24KT 110V220 10SM SCT048 32/17 A3009 RMK AO1
K5C1 271755Z AUTO 19010KT 10SM SCT048 32/18 A3009 RMK AO1
K5C1 271735Z AUTO 00000KT 10SM SCT048 30/17 A3010 RMK AO1
K5C1 271715Z AUTO 21010KT 10SM CLR 31/18 A3011 RMK AO1
K5C1 271655Z AUTO 21009KT 10SM CLR 30/18 A3011 RMK AO1
K5C1 271635Z AUTO 20007KT 10SM CLR 30/19 A3011 RMK AO1
K5C1 271615Z AUTO 19011G15KT 10SM CLR 28/19 A3012 RMK AO1
K5C1 271555Z AUTO 20009G14KT 10SM CLR 28/19 A3012 RMK AO1
K5C1 271535Z AUTO 19009KT 10SM CLR 27/20 A3011 RMK AO1
K5C1 271515Z AUTO 20010G16KT 10SM SCT024 27/20 A3012 RMK AO1
K5C1 271455Z AUTO 21009KT 10SM SCT022 26/20 A3011 RMK AO1
K5C1 271435Z AUTO 18009KT 10SM CLR 26/20 A3012 RMK AO1
K5C1 271415Z AUTO 21010G17KT 10SM CLR 25/20 A3011 RMK AO1
K5C1 271355Z AUTO 20008KT 10SM CLR 25/20 A3011 RMK AO1
K5C1 271335Z AUTO 18006KT 10SM CLR 23/21 A3011 RMK AO1
K5C1 271315Z AUTO 00000KT 10SM CLR 22/20 A3010 RMK AO1
K5C1 271255Z AUTO 00000KT 10SM CLR 21/20 A3010 RMK AO1
K5C1 271235Z AUTO 00000KT 10SM CLR 20/19 A3010 RMK AO1
K5C1 271215Z AUTO 00000KT 10SM CLR 19/18 A3009 RMK AO1
K5C1 271155Z AUTO 00000KT 10SM CLR 20/18 A3008 RMK AO1
K5C1 271135Z AUTO 00000KT 10SM CLR 20/18 A3008 RMK AO1
K5C1 271115Z AUTO 00000KT 10SM CLR 20/18 A3008 RMK AO1
K5C1 271055Z AUTO 00000KT 10SM CLR 20/18 A3007 RMK AO1
K5C1 271035Z AUTO 00000KT 10SM CLR 20/18 A3007 RMK AO1
K5C1 271015Z AUTO 00000KT 10SM CLR 21/19 A3007 RMK AO1
K5C1 270955Z AUTO 00000KT 10SM CLR 21/19 A3007 RMK AO1
K5C1 270935Z AUTO 00000KT 10SM CLR 21/19 A3008 RMK AO1
K5C1 270915Z AUTO 00000KT 10SM CLR 22/19 A3008 RMK AO1
K5C1 270855Z AUTO 20003KT 10SM CLR 22/19 A3008 RMK AO1
K5C1 270835Z AUTO 19003KT 10SM CLR 22/19 A3009 RMK AO1
K5C1 270815Z AUTO 20003KT 10SM CLR 22/19 A3010 RMK AO1
K5C1 270755Z AUTO 19005KT 10SM CLR 23/19 A3010 RMK AO1
K5C1 270735Z AUTO 19004KT 10SM CLR 23/19 A3010 RMK AO1
K5C1 270715Z AUTO 19008KT 10SM CLR 23/18 A3010 RMK AO1
K5C1 270655Z AUTO 18006KT 10SM CLR 23/18 A3011 RMK AO1
K5C1 270635Z AUTO 19003KT 10SM CLR 23/18 A3010 RMK AO1
K5C1 270615Z AUTO 19004KT 10SM CLR 24/19 A3010 RMK AO1
K5C1 270555Z AUTO 00000KT 10SM CLR 24/19 A3010 RMK AO1
K5C1 270535Z AUTO 19008KT 10SM CLR 24/19 A3010 RMK AO1
K5C1 270515Z AUTO 18005G14KT 10SM CLR 25/19 A3011 RMK AO1
K5C1 270455Z AUTO 18008G17KT 10SM SCT019 25/20 A3011 RMK AO1
K5C1 270435Z AUTO 18008KT 10SM SCT017 25/20 A3011 RMK AO1
K5C1 270415Z AUTO 18008KT 10SM CLR 25/20 A3010 RMK AO1
K5C1 270355Z AUTO 18007KT 10SM CLR 25/19 A3009 RMK AO1
K5C1 270335Z AUTO 17007KT 10SM CLR 25/18 A3009 RMK AO1
K5C1 270315Z AUTO 17006KT 10SM CLR 25/17 A3009 RMK AO1
K5C1 270255Z AUTO 18005KT 10SM CLR 26/17 A3008 RMK AO1
K5C1 270235Z AUTO 17005KT 10SM CLR 26/17 A3007 RMK AO1
K5C1 270215Z AUTO 18008G14KT 10SM CLR 27/17 A3006 RMK AO1
K5C1 270155Z AUTO 17006KT 10SM CLR 27/17 A3006 RMK AO1
K5C1 270135Z AUTO 17008KT 10SM CLR 27/17 A3005 RMK AO1
K5C1 270115Z AUTO 16010KT 10SM CLR 28/17 A3005 RMK AO1
K5C1 270055Z AUTO 17012G16KT 10SM CLR A3005 RMK AO1
K5C1 270035Z AUTO 16011G16KT 10SM CLR A3005 RMK AO1
K5C1 270015Z AUTO 16013G17KT 10SM SCT100 SCT120 30/19 A3005 RMK AO1
K5C1 262355Z AUTO 16013G26KT 10SM SCT080 BKN100 BKN120 A3005 RMK AO1
K5C1 262335Z AUTO 15008KT 120V180 10SM SCT080 A3002 RMK AO1
K5C1 262315Z AUTO 17010KT 10SM SCT100 A3002 RMK AO1
K5C1 262255Z AUTO 16008G15KT 10SM SCT080 BKN100 A3002 RMK AO1
K5C1 262235Z AUTO 15007G17KT 120V190 10SM SCT070 BKN100 A3002 RMK AO1
K5C1 262215Z AUTO 18009KT 10SM BKN070 BKN085 A3003 RMK AO1
K5C1 262155Z AUTO 16010G14KT 10SM BKN070 BKN085 A3003 RMK AO1
K5C1 262135Z AUTO 13006KT 10SM BKN070 A3004 RMK AO1
K5C1 262115Z AUTO 18006G18KT 10SM SCT070 A3004 RMK AO1
K5C1 262055Z AUTO 16009G14KT 10SM BKN070 A3005 RMK AO1
K5C1 262035Z AUTO 13005KT 10SM SCT070 A3006 RMK AO1
K5C1 262015Z AUTO 17008KT 140V200 10SM SCT070 A3007 RMK AO1
K5C1 261955Z AUTO 20006G17KT 10SM SCT060 A3008 RMK AO1
K5C1 261935Z AUTO 21010G17KT 10SM SCT060 A3009 RMK AO1
K5C1 261915Z AUTO 17005KT 10SM SCT060 A3011 RMK AO1
K5C1 261855Z AUTO 21007G15KT 160V240 10SM BKN050 A3012 RMK AO1
K5C1 261835Z AUTO 19007G15KT 160V230 10SM SCT050 A3012 RMK AO1
K5C1 261815Z AUTO 23005KT 10SM SCT050 A3013 RMK AO1
K5C1 261755Z AUTO 21012G15KT 10SM CLR A3013 RMK AO1
K5C1 261735Z AUTO 18010G16KT 10SM CLR A3013 RMK AO1
K5C1 261715Z AUTO 20009G18KT 10SM CLR A3014 RMK AO1
K5C1 261655Z AUTO 17010G16KT 140V200 10SM CLR 30/18 A3014 RMK AO1